Time;durP1;ratioP1;P1;durP2;ratioP2;P2;SDS_P1;SDS_P2;PMS_P1;PMS_P2;Temp;Humidity;BMP_temperature;BMP_pressure;BME280_temperature;BME280_humidity;BME280_pressure;Samples;Min_cycle;Max_cycle;Signal;HPM_P1;HPM_P2
2024/03/04 00:00:49;;;;;;;10.77;3.30;;;;;;;7.37;100.00;100082.38;5054690;28;20945;-71
2024/03/04 00:03:15;;;;;;;5.80;3.07;;;;;;;7.36;100.00;100078.06;5054295;28;20565;-70
2024/03/04 00:05:42;;;;;;;9.33;3.40;;;;;;;7.34;100.00;100073.75;5054432;28;20918;-70
2024/03/04 00:08:09;;;;;;;6.37;2.90;;;;;;;7.38;100.00;100073.19;5054077;28;20444;-70
2024/03/04 00:10:35;;;;;;;9.90;3.70;;;;;;;7.33;100.00;100074.06;5053970;28;20522;-70
2024/03/04 00:13:02;;;;;;;6.73;3.10;;;;;;;7.27;100.00;100080.63;5054540;28;20549;-70
2024/03/04 00:15:30;;;;;;;10.03;3.70;;;;;;;7.26;100.00;100071.75;5054177;28;20454;-70
2024/03/04 00:17:56;;;;;;;6.13;3.10;;;;;;;7.29;100.00;100079.22;5054299;28;20486;-70
2024/03/04 00:20:23;;;;;;;8.13;4.13;;;;;;;7.22;100.00;100078.00;5054122;28;20448;-70
2024/03/04 00:22:50;;;;;;;4.73;2.53;;;;;;;7.16;100.00;100081.84;5054194;28;20468;-70
2024/03/04 00:25:17;;;;;;;7.00;3.27;;;;;;;7.12;100.00;100084.31;5053844;28;20810;-70
2024/03/04 00:27:44;;;;;;;7.40;4.13;;;;;;;7.12;100.00;100076.22;5053704;28;20443;-70
2024/03/04 00:30:12;;;;;;;12.93;4.03;;;;;;;7.12;100.00;100087.00;5053952;28;20520;-70
2024/03/04 00:32:41;;;;;;;9.73;4.13;;;;;;;7.07;100.00;100076.31;5053719;28;20812;-70
2024/03/04 00:35:10;;;;;;;9.30;3.47;;;;;;;7.04;100.00;100079.59;5053232;28;21005;-70
2024/03/04 00:37:37;;;;;;;6.67;2.90;;;;;;;7.01;100.00;100077.47;5053870;28;20490;-70
2024/03/04 00:40:05;;;;;;;7.90;3.03;;;;;;;6.92;100.00;100082.69;5053684;28;20442;-70
2024/03/04 00:42:32;;;;;;;5.73;3.63;;;;;;;6.83;100.00;100084.44;5053789;28;20458;-70
2024/03/04 00:44:58;;;;;;;7.83;3.47;;;;;;;6.80;100.00;100080.41;5054062;28;20449;-71
2024/03/04 00:47:25;;;;;;;8.27;3.60;;;;;;;6.75;100.00;100083.19;5053316;28;20884;-71
2024/03/04 00:49:53;;;;;;;9.77;4.30;;;;;;;6.67;100.00;100086.50;5053623;28;20442;-71
2024/03/04 00:52:20;;;;;;;8.93;3.70;;;;;;;6.63;100.00;100087.34;5053494;28;20505;-71
2024/03/04 00:54:47;;;;;;;9.67;3.33;;;;;;;6.57;100.00;100089.31;5053463;28;21017;-71
2024/03/04 00:57:14;;;;;;;7.37;3.90;;;;;;;6.53;100.00;100096.34;5053775;28;20485;-71
2024/03/04 00:59:41;;;;;;;5.87;2.23;;;;;;;6.53;100.00;100099.84;5053589;28;20442;-71
2024/03/04 01:02:07;;;;;;;7.20;4.17;;;;;;;6.48;100.00;100094.53;5055751;28;20542;-72
2024/03/04 01:04:34;;;;;;;6.80;2.77;;;;;;;6.52;100.00;100098.25;5059711;28;20522;-72
2024/03/04 01:07:02;;;;;;;6.90;2.67;;;;;;;6.48;100.00;100099.09;5053783;28;20457;-72
2024/03/04 01:09:29;;;;;;;12.97;3.97;;;;;;;6.51;100.00;100101.22;5053693;28;20533;-72
2024/03/04 01:11:56;;;;;;;4.33;2.60;;;;;;;6.49;100.00;100095.31;5053142;28;20875;-72
2024/03/04 01:14:23;;;;;;;8.80;2.53;;;;;;;6.50;100.00;100102.28;5053746;28;20852;-72
2024/03/04 01:16:50;;;;;;;8.10;2.90;;;;;;;6.44;100.00;100098.06;5067665;22;20914;-71
2024/03/04 01:19:17;;;;;;;11.47;4.40;;;;;;;6.40;100.00;100097.03;5052738;28;20482;-71
2024/03/04 01:21:44;;;;;;;6.80;3.23;;;;;;;6.31;100.00;100092.28;5053292;28;20470;-71
2024/03/04 01:24:13;;;;;;;6.50;2.30;;;;;;;6.35;100.00;100103.25;5052810;28;20541;-71
2024/03/04 01:26:39;;;;;;;4.50;2.70;;;;;;;6.35;100.00;100103.25;5053280;28;20478;-71
2024/03/04 01:29:08;;;;;;;5.90;3.10;;;;;;;6.37;100.00;100097.59;5053547;28;20500;-70
2024/03/04 01:31:34;;;;;;;10.73;4.20;;;;;;;6.37;100.00;100095.69;5053267;28;20446;-71
2024/03/04 01:34:02;;;;;;;5.00;2.37;;;;;;;6.36;100.00;100090.63;5053155;28;20704;-71
2024/03/04 01:36:29;;;;;;;10.07;3.53;;;;;;;6.39;100.00;100093.53;5053249;28;20914;-71
2024/03/04 01:38:56;;;;;;;13.80;4.30;;;;;;;6.38;100.00;100094.63;5053082;28;20477;-71
2024/03/04 01:41:24;;;;;;;10.60;3.80;;;;;;;6.37;100.00;100100.28;5053147;28;20617;-71
2024/03/04 01:43:51;;;;;;;13.67;3.77;;;;;;;6.28;100.00;100095.50;5053019;28;20469;-71
2024/03/04 01:46:19;;;;;;;6.07;3.77;;;;;;;6.20;100.00;100104.22;5057423;28;20441;-71
2024/03/04 01:48:46;;;;;;;5.40;3.33;;;;;;;6.20;100.00;100104.22;5056945;28;20430;-71
2024/03/04 01:51:14;;;;;;;5.50;3.53;;;;;;;6.17;100.00;100103.97;5056976;28;20444;-71
2024/03/04 01:53:41;;;;;;;7.17;4.17;;;;;;;6.09;100.00;100109.97;5056842;28;20472;-71
2024/03/04 01:56:08;;;;;;;6.40;3.00;;;;;;;6.06;100.00;100105.94;5056921;28;20473;-71
2024/03/04 01:58:42;;;;;;;16.83;3.90;;;;;;;5.99;100.00;100113.56;5056443;28;21079;-71
2024/03/04 02:01:09;;;;;;;19.83;5.17;;;;;;;6.03;100.00;100110.03;5057235;28;20513;-71
2024/03/04 02:03:37;;;;;;;10.00;3.50;;;;;;;6.02;100.00;100108.44;5056826;28;20490;-70
2024/03/04 02:06:08;;;;;;;7.80;3.73;;;;;;;6.01;100.00;100106.00;5056598;28;20821;-71
2024/03/04 02:08:35;;;;;;;8.13;3.07;;;;;;;6.03;100.00;100112.72;5056809;28;20422;-71
2024/03/04 02:11:03;;;;;;;6.20;3.40;;;;;;;5.96;100.00;100108.72;5056657;28;20452;-71
2024/03/04 02:13:31;;;;;;;7.63;3.83;;;;;;;6.00;100.00;100109.78;5056690;28;20466;-70
2024/03/04 02:15:59;;;;;;;6.20;2.47;;;;;;;5.99;100.00;100105.50;5056445;28;20896;-71
2024/03/04 02:18:26;;;;;;;14.20;3.47;;;;;;;6.00;100.00;100109.78;5056364;28;20486;-71
2024/03/04 02:20:56;;;;;;;13.60;3.60;;;;;;;6.02;100.00;100104.91;5056464;28;20520;-71
2024/03/04 02:23:23;;;;;;;5.70;3.40;;;;;;;6.03;100.00;100106.53;5056252;28;20461;-71
2024/03/04 02:25:54;;;;;;;6.13;3.40;;;;;;;6.04;100.00;100113.50;5056051;28;20532;-71
2024/03/04 02:28:22;;;;;;;6.47;3.77;;;;;;;6.02;100.00;100112.97;5057039;28;20438;-71
2024/03/04 02:30:49;;;;;;;5.80;3.10;;;;;;;5.93;100.00;100117.34;5056181;28;20793;-71
2024/03/04 02:33:19;;;;;;;5.87;3.10;;;;;;;5.94;100.00;100121.66;5056554;28;20545;-71
2024/03/04 02:35:46;;;;;;;13.07;4.47;;;;;;;5.87;100.00;100123.84;5056803;28;20431;-71
2024/03/04 02:38:13;;;;;;;7.63;4.40;;;;;;;5.90;100.00;100124.06;5056356;28;20484;-69
2024/03/04 02:40:41;;;;;;;6.47;3.00;;;;;;;5.92;100.00;100130.00;5055905;28;20855;-69
2024/03/04 02:43:08;;;;;;;8.07;4.00;;;;;;;5.88;100.00;100134.28;5055814;28;20905;-70
2024/03/04 02:45:35;;;;;;;5.77;3.20;;;;;;;5.92;100.00;100139.94;5056470;28;20449;-70
2024/03/04 02:48:01;;;;;;;6.97;3.53;;;;;;;5.89;100.00;100145.84;5056298;28;20436;-70
2024/03/04 02:50:28;;;;;;;11.57;4.83;;;;;;;5.83;100.00;100142.41;5056204;28;20488;-70
2024/03/04 02:52:55;;;;;;;4.43;2.40;;;;;;;5.85;100.00;100144.81;5055755;28;20465;-70
2024/03/04 02:55:21;;;;;;;6.33;3.43;;;;;;;5.85;100.00;100152.88;5055502;28;20478;-70
2024/03/04 02:57:49;;;;;;;9.43;3.10;;;;;;;5.81;100.00;100144.56;5054734;28;20939;-70
2024/03/04 03:00:17;;;;;;;9.07;4.10;;;;;;;5.72;100.00;100149.75;5055753;28;20530;-70
2024/03/04 03:02:43;;;;;;;7.80;3.70;;;;;;;5.71;100.00;100152.69;5056152;28;20486;-70
2024/03/04 03:05:10;;;;;;;5.73;2.43;;;;;;;5.70;100.00;100151.09;5056001;28;20521;-70
2024/03/04 03:07:36;;;;;;;11.20;5.03;;;;;;;5.63;100.00;100154.09;5055826;28;20525;-70
2024/03/04 03:10:04;;;;;;;9.60;4.23;;;;;;;5.64;100.00;100155.69;5055546;28;20849;-70
2024/03/04 03:12:30;;;;;;;11.50;3.33;;;;;;;5.61;100.00;100155.44;5055631;28;20465;-70
2024/03/04 03:14:58;;;;;;;4.30;2.40;;;;;;;5.59;100.00;100153.06;5055045;28;20533;-71
2024/03/04 03:17:25;;;;;;;7.63;3.73;;;;;;;5.54;100.00;100158.47;5055317;28;20826;-71
2024/03/04 03:19:52;;;;;;;6.40;2.53;;;;;;;5.44;100.00;100161.19;5055305;28;20578;-71
2024/03/04 03:22:19;;;;;;;5.47;3.50;;;;;;;5.49;100.00;100166.53;5055467;28;20454;-70
2024/03/04 03:24:46;;;;;;;7.30;4.03;;;;;;;5.47;100.00;100161.44;5055266;28;20450;-70
2024/03/04 03:27:12;;;;;;;4.70;2.43;;;;;;;5.55;100.00;100168.13;5055063;28;20450;-70
2024/03/04 03:29:39;;;;;;;8.13;2.87;;;;;;;5.57;100.00;100171.31;5055479;28;20916;-70
2024/03/04 03:32:08;;;;;;;10.83;4.23;;;;;;;5.57;100.00;100180.16;5055010;28;20458;-70
2024/03/04 03:34:35;;;;;;;11.40;3.63;;;;;;;5.49;100.00;100179.94;5054770;28;20449;-70
2024/03/04 03:37:01;;;;;;;8.53;3.57;;;;;;;5.47;100.00;100182.94;5055020;28;20545;-70
2024/03/04 03:39:28;;;;;;;7.07;3.60;;;;;;;5.44;100.00;100182.66;5054931;28;20517;-70
2024/03/04 03:41:55;;;;;;;7.60;3.93;;;;;;;5.43;100.00;100186.44;5054979;28;20443;-70
2024/03/04 03:44:21;;;;;;;7.13;3.83;;;;;;;5.41;100.00;100184.03;5055266;28;20478;-70
2024/03/04 03:46:48;;;;;;;7.27;3.27;;;;;;;5.41;100.00;100193.97;5055161;28;20860;-70
2024/03/04 03:49:16;;;;;;;6.60;3.37;;;;;;;5.38;100.00;100181.09;5054916;28;20438;-70
2024/03/04 03:51:43;;;;;;;6.83;3.73;;;;;;;5.38;100.00;100189.16;5054407;28;20450;-70
2024/03/04 03:54:09;;;;;;;6.30;3.67;;;;;;;5.43;100.00;100189.94;5054427;28;20438;-70
2024/03/04 03:56:41;;;;;;;6.17;3.43;;;;;;;5.42;100.00;100187.53;5054858;28;20529;-71
2024/03/04 03:59:07;;;;;;;9.60;3.90;;;;;;;5.39;100.00;100193.44;5054580;28;20853;-71
2024/03/04 04:01:34;;;;;;;8.80;3.50;;;;;;;5.36;100.00;100185.94;5054885;28;20467;-70
2024/03/04 04:04:01;;;;;;;6.77;3.13;;;;;;;5.37;100.00;100198.31;5054416;28;20553;-71
2024/03/04 04:06:29;;;;;;;11.07;3.70;;;;;;;5.29;100.00;100196.97;5054445;28;20536;-70
2024/03/04 04:08:55;;;;;;;6.53;3.73;;;;;;;5.24;100.00;100202.38;5053669;28;20465;-70
2024/03/04 04:11:22;;;;;;;9.17;4.10;;;;;;;5.23;100.00;100204.25;5054725;28;20449;-70
2024/03/04 04:13:48;;;;;;;7.37;3.43;;;;;;;5.20;100.00;100206.69;5054702;28;20466;-70
2024/03/04 04:16:15;;;;;;;7.03;4.30;;;;;;;5.14;100.00;100207.78;5053973;28;20454;-70
2024/03/04 04:18:42;;;;;;;7.73;4.17;;;;;;;5.14;100.00;100211.28;5054136;28;20556;-70
2024/03/04 04:21:09;;;;;;;7.30;3.80;;;;;;;5.05;100.00;100208.34;5054539;28;20470;-70
2024/03/04 04:23:37;;;;;;;7.17;3.97;;;;;;;5.04;100.00;100211.28;5054366;28;20458;-70
2024/03/04 04:26:05;;;;;;;7.40;3.03;;;;;;;5.06;100.00;100214.53;5053968;28;21013;-70
2024/03/04 04:28:32;;;;;;;4.90;2.50;;;;;;;5.07;100.00;100216.13;5054157;28;20474;-70
2024/03/04 04:30:58;;;;;;;6.40;3.40;;;;;;;5.07;100.00;100221.50;5053978;28;20487;-70
2024/03/04 04:33:25;;;;;;;10.60;3.90;;;;;;;5.06;100.00;100220.69;5053521;28;20982;-70
2024/03/04 04:35:52;;;;;;;9.27;4.50;;;;;;;5.04;100.00;100222.84;5053940;28;20926;-70
2024/03/04 04:38:20;;;;;;;8.70;4.50;;;;;;;5.01;100.00;100220.72;5054136;28;20545;-69
2024/03/04 04:40:50;;;;;;;11.60;3.70;;;;;;;5.02;100.00;100219.63;5054045;28;20917;-69
2024/03/04 04:43:20;;;;;;;13.93;4.97;;;;;;;5.09;100.00;100229.25;5053400;28;20493;-70
2024/03/04 04:45:47;;;;;;;5.50;3.07;;;;;;;5.07;100.00;100229.53;5053148;28;20992;-70
2024/03/04 04:48:14;;;;;;;7.63;2.97;;;;;;;5.04;100.00;100230.09;5053953;28;20449;-70
2024/03/04 04:50:41;;;;;;;8.20;4.20;;;;;;;5.00;100.00;100232.53;5053633;28;20532;-71
2024/03/04 04:53:07;;;;;;;9.83;6.00;;;;;;;4.98;100.00;100233.88;5053343;28;20970;-71
2024/03/04 04:55:35;;;;;;;11.90;5.47;;;;;;;5.03;100.00;100236.53;5054025;28;20488;-71
2024/03/04 04:58:03;;;;;;;7.27;5.03;;;;;;;5.02;100.00;100234.94;5053662;28;20444;-70
2024/03/04 05:00:30;;;;;;;7.90;5.50;;;;;;;5.09;100.00;100235.47;5053244;28;20490;-70
2024/03/04 05:02:56;;;;;;;7.30;3.83;;;;;;;5.11;100.00;100241.34;5053376;28;20493;-70
2024/03/04 05:05:23;;;;;;;15.40;6.93;;;;;;;5.10;100.00;100237.06;5053533;28;20439;-70
2024/03/04 05:07:50;;;;;;;11.63;4.17;;;;;;;5.12;100.00;100239.47;5053526;28;20949;-70
2024/03/04 05:10:17;;;;;;;9.57;5.30;;;;;;;5.07;100.00;100235.72;5053419;28;20612;-70
2024/03/04 05:12:43;;;;;;;7.33;3.83;;;;;;;5.06;100.00;100236.00;5053680;28;20469;-70
2024/03/04 05:15:11;;;;;;;8.60;4.97;;;;;;;5.03;100.00;100234.66;5053221;28;20553;-70
2024/03/04 05:17:38;;;;;;;7.90;3.87;;;;;;;5.02;100.00;100234.94;5053599;28;20501;-70
2024/03/04 05:20:07;;;;;;;7.03;4.57;;;;;;;4.98;100.00;100236.56;5056900;28;20485;-70
2024/03/04 05:22:34;;;;;;;8.13;4.80;;;;;;;5.02;100.00;100241.09;5059998;28;20854;-70
2024/03/04 05:25:00;;;;;;;10.27;4.47;;;;;;;5.01;100.00;100238.69;5060209;28;20453;-70
2024/03/04 05:27:28;;;;;;;15.50;7.03;;;;;;;5.01;100.00;100242.19;5059649;28;20995;-70
2024/03/04 05:29:55;;;;;;;9.80;4.23;;;;;;;4.99;100.00;100251.56;5060015;28;20477;-70
2024/03/04 05:32:23;;;;;;;11.77;5.27;;;;;;;4.98;100.00;100258.81;5060098;28;20988;-70
2024/03/04 05:34:49;;;;;;;6.23;4.10;;;;;;;4.95;100.00;100250.50;5059857;28;20468;-71
2024/03/04 05:37:16;;;;;;;6.13;3.37;;;;;;;4.96;100.00;100260.19;5059761;28;20465;-71
2024/03/04 05:39:46;;;;;;;6.07;3.40;;;;;;;4.95;100.00;100256.66;5059444;28;20520;-71
2024/03/04 05:42:13;;;;;;;11.50;5.10;;;;;;;4.97;100.00;100259.09;5059503;28;20966;-71
2024/03/04 05:44:39;;;;;;;10.40;4.80;;;;;;;4.99;100.00;100265.00;5059492;28;20532;-70
2024/03/04 05:47:06;;;;;;;9.97;4.97;;;;;;;5.03;100.00;100258.00;5059609;28;20777;-70
2024/03/04 05:49:35;;;;;;;12.20;5.63;;;;;;;5.04;100.00;100271.16;5059800;28;20430;-70
2024/03/04 05:52:02;;;;;;;23.13;5.00;;;;;;;5.06;100.00;100266.31;5059327;28;20454;-70
2024/03/04 05:54:28;;;;;;;6.83;4.30;;;;;;;5.12;100.00;100266.31;5059772;28;20489;-70
2024/03/04 05:56:55;;;;;;;9.70;5.50;;;;;;;5.11;100.00;100270.88;5059659;28;20438;-70
2024/03/04 05:59:22;;;;;;;9.83;5.03;;;;;;;5.14;100.00;100264.97;5059360;28;21017;-70
2024/03/04 06:01:49;;;;;;;9.50;5.37;;;;;;;5.17;100.00;100269.78;5059317;28;20532;-70
2024/03/04 06:04:15;;;;;;;10.50;6.00;;;;;;;5.19;100.00;100262.28;5059308;28;20438;-70
2024/03/04 06:06:43;;;;;;;10.90;5.20;;;;;;;5.27;100.00;100267.09;5059720;28;20442;-70
2024/03/04 06:09:09;;;;;;;15.00;6.13;;;;;;;5.28;100.00;100275.94;5060029;28;20442;-70
2024/03/04 06:11:36;;;;;;;9.47;4.63;;;;;;;5.35;100.00;100273.75;5059518;28;20547;-70
2024/03/04 06:14:02;;;;;;;13.37;5.93;;;;;;;5.42;100.00;100276.97;5059517;28;20438;-70
2024/03/04 06:16:29;;;;;;;27.73;7.30;;;;;;;5.46;100.00;100280.72;5059224;28;20549;-70
2024/03/04 06:18:55;;;;;;;15.13;6.90;;;;;;;5.50;100.00;100278.28;5059656;28;20580;-70
2024/03/04 06:21:22;;;;;;;11.43;6.50;;;;;;;5.51;100.00;100282.56;5060049;28;20837;-70
2024/03/04 06:23:50;;;;;;;16.20;6.70;;;;;;;5.62;100.00;100286.00;5059848;28;20485;-70
2024/03/04 06:26:18;;;;;;;12.07;7.57;;;;;;;5.69;100.00;100281.94;5059848;28;20521;-70
2024/03/04 06:28:44;;;;;;;12.77;7.67;;;;;;;5.74;100.00;100292.66;5059391;28;20445;-70
2024/03/04 06:31:11;;;;;;;18.33;8.33;;;;;;;5.77;100.00;100294.00;5057714;28;20533;-70
2024/03/04 06:33:38;;;;;;;19.17;6.60;;;;;;;5.82;100.00;100292.09;5056408;28;20561;-70
2024/03/04 06:36:05;;;;;;;30.60;9.00;;;;;;;5.84;100.00;100297.19;5056184;28;20477;-70
2024/03/04 06:38:32;;;;;;;19.50;8.37;;;;;;;5.93;100.00;100297.44;5056597;28;20526;-70
2024/03/04 06:41:00;;;;;;;17.40;7.43;;;;;;;5.97;100.00;100303.88;5056093;28;20532;-70
2024/03/04 06:43:26;;;;;;;14.70;6.87;;;;;;;6.01;100.00;100311.09;5056006;28;20546;-70
2024/03/04 06:45:54;;;;;;;14.20;7.53;;;;;;;6.02;100.00;100315.44;5055940;28;20461;-70
2024/03/04 06:48:20;;;;;;;19.70;7.53;;;;;;;6.09;100.00;100309.72;5055976;28;20786;-70
2024/03/04 06:50:47;;;;;;;13.97;6.80;;;;;;;6.17;100.00;100308.34;5055617;28;20537;-71
2024/03/04 06:53:14;;;;;;;10.00;5.67;;;;;;;6.28;100.00;100310.69;5055805;28;20469;-71
2024/03/04 06:55:40;;;;;;;18.83;8.83;;;;;;;6.38;100.00;100319.78;5055905;28;20521;-71
2024/03/04 06:58:10;;;;;;;9.13;6.40;;;;;;;6.46;100.00;100321.84;5055780;28;20470;-73
2024/03/04 07:00:37;;;;;;;17.17;7.50;;;;;;;6.52;100.00;100318.06;5055644;28;20568;-69
2024/03/04 07:03:04;;;;;;;20.17;7.40;;;;;;;6.56;100.00;100322.59;5055398;28;20826;-71
2024/03/04 07:05:32;;;;;;;23.27;9.13;;;;;;;6.66;100.00;100326.31;5055747;28;20464;-70
2024/03/04 07:07:58;;;;;;;18.67;10.10;;;;;;;6.76;100.00;100332.41;5055962;28;20517;-71
2024/03/04 07:10:25;;;;;;;16.17;6.90;;;;;;;6.83;100.00;100332.88;5055922;28;20825;-70
2024/03/04 07:12:52;;;;;;;13.37;9.10;;;;;;;6.92;100.00;100334.97;5055626;28;20554;-70
2024/03/04 07:15:20;;;;;;;14.87;8.20;;;;;;;7.01;100.00;100335.97;5055349;28;20458;-70
2024/03/04 07:17:46;;;;;;;20.70;8.00;;;;;;;7.14;100.00;100338.00;5055424;28;20518;-70
2024/03/04 07:20:13;;;;;;;17.37;8.30;;;;;;;7.34;100.00;100331.59;5055252;28;20525;-70
2024/03/04 07:22:40;;;;;;;18.00;8.67;;;;;;;7.49;100.00;100344.91;5055194;28;20970;-71
2024/03/04 07:25:08;;;;;;;18.70;9.03;;;;;;;7.63;100.00;100345.03;5055301;28;20533;-71
2024/03/04 07:27:34;;;;;;;27.27;9.93;;;;;;;7.70;100.00;100344.66;5055484;28;20443;-71
2024/03/04 07:30:01;;;;;;;12.47;7.80;;;;;;;7.80;100.00;100350.75;5055192;28;20521;-71
2024/03/04 07:32:29;;;;;;;20.57;10.70;;;;;;;7.86;100.00;100342.59;5055368;28;20783;-71
2024/03/04 07:34:55;;;;;;;24.70;10.10;;;;;;;7.96;100.00;100339.78;5055094;28;20533;-71
2024/03/04 07:37:22;;;;;;;17.53;9.90;;;;;;;8.05;100.00;100352.31;5054975;28;21002;-71
2024/03/04 07:39:49;;;;;;;16.50;8.30;;;;;;;8.13;100.00;100353.56;5054907;28;20482;-71
2024/03/04 07:42:15;;;;;;;15.50;8.17;;;;;;;8.30;100.00;100359.28;5054495;28;20545;-71
2024/03/04 07:44:44;;;;;;;18.83;7.50;;;;;;;8.44;100.00;100355.88;5054940;28;20431;-71
2024/03/04 07:47:11;;;;;;;18.60;9.00;;;;;;;8.53;100.00;100356.81;5055104;28;20450;-71
2024/03/04 07:49:39;;;;;;;17.33;10.40;;;;;;;8.60;100.00;100354.56;5054523;28;20915;-71
2024/03/04 07:52:06;;;;;;;22.17;9.83;;;;;;;8.66;100.00;100361.50;5054389;28;20882;-71
2024/03/04 07:54:32;;;;;;;17.57;8.63;;;;;;;8.84;100.00;100360.66;5054730;28;20458;-72
2024/03/04 07:56:59;;;;;;;18.53;10.10;;;;;;;8.98;100.00;100373.41;5054677;28;20529;-72
2024/03/04 07:59:26;;;;;;;15.40;8.93;;;;;;;9.04;100.00;100375.75;5054397;28;20448;-71
2024/03/04 08:01:52;;;;;;;17.90;8.87;;;;;;;9.15;100.00;100379.06;5054327;28;20485;-71
2024/03/04 08:04:19;;;;;;;16.50;9.50;;;;;;;9.25;100.00;100373.50;5054712;28;20447;-71
2024/03/04 08:06:48;;;;;;;23.60;10.40;;;;;;;9.41;100.00;100382.13;5054141;28;20922;-71
2024/03/04 08:09:14;;;;;;;20.47;8.40;;;;;;;9.51;100.00;100378.44;5054945;28;20481;-71
2024/03/04 08:11:41;;;;;;;20.23;10.53;;;;;;;9.53;100.00;100389.75;5054688;28;20439;-71
2024/03/04 08:14:08;;;;;;;22.27;10.57;;;;;;;9.54;100.00;100377.84;5054619;28;20536;-72
2024/03/04 08:16:34;;;;;;;23.17;9.43;;;;;;;9.65;100.00;100381.97;5053975;28;20458;-72
2024/03/04 08:19:01;;;;;;;16.80;10.40;;;;;;;9.76;100.00;100391.47;5054007;28;20442;-75
2024/03/04 08:21:28;;;;;;;27.43;11.80;;;;;;;9.86;100.00;100388.56;5054132;28;20482;-72
2024/03/04 08:23:55;;;;;;;26.13;12.17;;;;;;;9.94;100.00;100397.09;5053778;28;20506;-70
2024/03/04 08:26:22;;;;;;;18.63;10.10;;;;;;;9.96;100.00;100393.00;5054453;28;20525;-70
2024/03/04 08:28:49;;;;;;;22.07;10.93;;;;;;;10.10;100.00;100406.50;5054305;28;20526;-70
2024/03/04 08:31:18;;;;;;;29.70;13.50;;;;;;;10.15;100.00;100403.69;5054433;28;20439;-70
2024/03/04 08:33:44;;;;;;;25.57;11.50;;;;;;;10.23;99.82;100413.81;5053617;28;20877;-70
2024/03/04 08:36:11;;;;;;;19.10;11.10;;;;;;;10.28;99.00;100419.16;5053647;28;20997;-71
2024/03/04 08:38:38;;;;;;;22.27;12.90;;;;;;;10.24;99.06;100410.03;5054091;28;20521;-71
2024/03/04 08:41:06;;;;;;;28.00;12.93;;;;;;;10.33;98.68;100420.94;5053460;28;20569;-72
2024/03/04 08:43:33;;;;;;;24.17;12.40;;;;;;;10.42;98.61;100426.44;5053730;28;20488;-72
2024/03/04 08:45:59;;;;;;;24.27;12.20;;;;;;;10.44;99.01;100433.16;5054052;28;20445;-70
2024/03/04 08:48:26;;;;;;;18.30;11.27;;;;;;;10.64;97.32;100431.13;5053642;28;20503;-71
2024/03/04 08:50:53;;;;;;;28.23;12.07;;;;;;;10.70;97.36;100433.38;5053577;28;20442;-71
2024/03/04 08:53:19;;;;;;;30.07;13.80;;;;;;;10.77;96.87;100433.78;5053839;28;20537;-70
2024/03/04 08:55:46;;;;;;;23.10;11.63;;;;;;;10.79;96.62;100442.41;5053082;28;20536;-71
2024/03/04 08:58:14;;;;;;;24.57;14.07;;;;;;;10.76;96.50;100434.91;5053934;28;20442;-71
2024/03/04 09:00:41;;;;;;;25.43;13.40;;;;;;;10.82;96.71;100447.22;5053551;28;20488;-71
2024/03/04 09:03:07;;;;;;;33.60;14.20;;;;;;;10.98;96.41;100442.25;5053165;28;21068;-72
2024/03/04 09:05:35;;;;;;;23.93;13.90;;;;;;;11.05;95.88;100448.03;5053495;28;20445;-71
2024/03/04 09:08:03;;;;;;;22.20;11.40;;;;;;;11.09;95.86;100445.50;5053529;28;20435;-71
2024/03/04 09:10:30;;;;;;;29.90;13.37;;;;;;;11.18;95.33;100446.38;5053465;28;20434;-72
2024/03/04 09:12:58;;;;;;;27.13;13.47;;;;;;;11.23;94.12;100443.53;5053037;28;20973;-71
2024/03/04 09:15:26;;;;;;;35.10;14.40;;;;;;;11.31;94.00;100448.22;5053273;28;20455;-71
2024/03/04 09:17:52;;;;;;;29.00;11.87;;;;;;;11.37;93.50;100446.16;5053353;28;20431;-71
2024/03/04 09:20:19;;;;;;;31.07;12.90;;;;;;;11.36;93.15;100445.38;5053777;28;20492;-71
2024/03/04 09:22:46;;;;;;;38.07;14.00;;;;;;;11.50;93.42;100441.78;5053292;28;20557;-71
2024/03/04 09:25:12;;;;;;;21.83;11.67;;;;;;;11.58;92.99;100441.81;5053656;28;20437;-71
2024/03/04 09:27:43;;;;;;;20.70;11.10;;;;;;;11.65;91.78;100446.03;5053326;28;20448;-72
2024/03/04 09:30:10;;;;;;;27.47;14.70;;;;;;;11.70;90.59;100449.41;5053655;28;20496;-71
2024/03/04 09:32:38;;;;;;;26.57;12.43;;;;;;;11.72;89.89;100449.88;5053169;28;20535;-71
2024/03/04 09:35:06;;;;;;;24.67;13.93;;;;;;;11.72;90.02;100455.31;5053143;28;20443;-71
2024/03/04 09:37:32;;;;;;;23.70;13.20;;;;;;;11.71;90.35;100451.00;5053232;28;20470;-71
2024/03/04 09:39:59;;;;;;;24.47;12.83;;;;;;;11.71;91.17;100456.41;5053489;28;20596;-71
2024/03/04 09:42:30;;;;;;;25.90;14.87;;;;;;;11.79;90.84;100454.88;5052798;28;20985;-71
2024/03/04 09:44:58;;;;;;;23.50;11.50;;;;;;;11.89;90.41;100467.41;5053227;28;20446;-71
2024/03/04 09:47:26;;;;;;;24.87;12.30;;;;;;;11.95;90.09;100463.41;5052740;28;20808;-71
2024/03/04 09:49:54;;;;;;;23.10;12.27;;;;;;;12.01;90.12;100470.31;5053277;28;20477;-71
2024/03/04 09:52:21;;;;;;;27.33;13.13;;;;;;;12.13;90.00;100467.81;5053347;28;20851;-70
2024/03/04 09:54:49;;;;;;;25.03;12.33;;;;;;;12.24;88.33;100468.31;5053590;28;20525;-71
2024/03/04 09:57:16;;;;;;;23.30;13.10;;;;;;;12.19;88.49;100466.56;5053367;28;20434;-71
2024/03/04 09:59:43;;;;;;;27.67;12.87;;;;;;;12.21;88.17;100472.47;5052943;28;20450;-72
2024/03/04 10:02:12;;;;;;;23.00;11.73;;;;;;;12.21;88.04;100468.94;5052592;28;21047;-71
2024/03/04 10:04:40;;;;;;;26.27;12.97;;;;;;;12.24;87.78;100471.84;5052888;28;20529;-71
2024/03/04 10:07:09;;;;;;;22.63;11.47;;;;;;;12.32;87.25;100484.66;5054412;28;20503;-71
2024/03/04 10:09:35;;;;;;;23.73;13.70;;;;;;;12.43;86.94;100477.00;5056721;28;20464;-71
2024/03/04 10:12:03;;;;;;;23.03;12.47;;;;;;;12.57;85.83;100483.13;5056705;28;20478;-71
2024/03/04 10:14:30;;;;;;;26.43;12.60;;;;;;;12.69;85.55;100484.41;5056623;28;20556;-72
2024/03/04 10:16:58;;;;;;;17.50;10.00;;;;;;;12.72;85.79;100484.59;5056363;28;20496;-71
2024/03/04 10:19:24;;;;;;;23.17;12.17;;;;;;;12.79;85.59;100484.09;5056549;28;20530;-71
2024/03/04 10:21:51;;;;;;;21.80;13.50;;;;;;;12.84;85.51;100476.59;5056364;28;20478;-71
2024/03/04 10:24:19;;;;;;;29.20;13.53;;;;;;;12.98;85.33;100481.09;5056420;28;20542;-71
2024/03/04 10:26:47;;;;;;;23.13;12.77;;;;;;;13.05;84.68;100486.84;5056768;28;20442;-71
2024/03/04 10:29:15;;;;;;;22.50;11.63;;;;;;;13.07;84.45;100490.84;5056433;28;20448;-71
2024/03/04 10:31:52;;;;;;;23.90;12.57;;;;;;;13.16;84.13;100488.13;5056464;28;20533;-71
2024/03/04 10:34:19;;;;;;;24.67;12.20;;;;;;;13.24;83.91;100495.53;5056407;28;20532;-71
2024/03/04 10:36:47;;;;;;;22.30;11.83;;;;;;;13.21;83.26;100490.69;5056537;28;20449;-71
2024/03/04 10:39:16;;;;;;;21.87;12.17;;;;;;;13.25;83.38;100488.94;5056545;28;20438;-71
2024/03/04 10:41:44;;;;;;;23.83;12.73;;;;;;;13.31;82.65;100490.38;5055946;28;20486;-71
2024/03/04 10:44:24;;;;;;;25.07;13.00;;;;;;;13.38;82.31;100495.34;5056134;28;20530;-71
2024/03/04 10:46:55;;;;;;;21.73;11.27;;;;;;;13.39;82.24;100496.94;5056403;28;20538;-71
2024/03/04 10:49:23;;;;;;;34.33;12.07;;;;;;;13.43;82.24;100503.34;5056383;28;20418;-71
2024/03/04 10:51:49;;;;;;;22.57;12.23;;;;;;;13.37;81.96;100497.28;5055907;28;20445;-71
2024/03/04 10:54:21;;;;;;;22.37;11.87;;;;;;;13.29;82.40;100498.06;5055648;28;20953;-71
2024/03/04 10:56:57;;;;;;;24.47;12.20;;;;;;;13.31;82.65;100503.97;5056203;28;20431;-71
2024/03/04 10:59:30;;;;;;;28.90;11.10;;;;;;;13.35;82.26;100506.88;5055781;28;20418;-71
2024/03/04 11:01:59;;;;;;;17.80;10.37;;;;;;;13.46;81.64;100508.16;5056188;28;20560;-71
2024/03/04 11:04:26;;;;;;;22.53;12.17;;;;;;;13.46;81.65;100505.41;5055664;28;20449;-71
2024/03/04 11:06:53;;;;;;;28.13;13.70;;;;;;;13.49;81.72;100510.19;5056253;28;20438;-71
2024/03/04 11:09:20;;;;;;;28.10;13.37;;;;;;;13.42;81.86;100504.47;5055550;28;20472;-71
2024/03/04 11:11:59;;;;;;;24.10;13.40;;;;;;;13.53;81.96;100508.44;5055699;28;20492;-71
2024/03/04 11:14:33;;;;;;;20.47;11.47;;;;;;;13.58;81.28;100505.53;5055568;28;20450;-71
2024/03/04 11:17:05;;;;;;;29.63;11.27;;;;;;;13.58;80.19;100510.19;5054793;28;20458;-71